Time;durP1;ratioP1;P1;durP2;ratioP2;P2;SDS_P1;SDS_P2;PMS_P1;PMS_P2;Temp;Humidity;BMP_temperature;BMP_pressure;BME280_temperature;BME280_humidity;BME280_pressure;Samples;Min_cycle;Max_cycle;Signal;HPM_P1;HPM_P2
2022/12/05 00:01:34;;;;;;;;;;;24.30;99.90;;;;;;5053896;28;20287;-69
2022/12/05 00:04:02;;;;;;;;;;;24.40;99.90;;;;;;5054772;28;19913;-69
2022/12/05 00:06:29;;;;;;;;;;;24.40;99.90;;;;;;5053025;28;19986;-70
2022/12/05 00:08:57;;;;;;;;;;;24.40;99.90;;;;;;5054234;28;20367;-70
2022/12/05 00:11:25;;;;;;;;;;;24.40;99.90;;;;;;5053682;28;19928;-69
2022/12/05 00:13:52;;;;;;;;;;;24.40;99.90;;;;;;5054482;28;20007;-66
2022/12/05 00:16:20;;;;;;;;;;;24.40;99.90;;;;;;5053823;28;19908;-69
2022/12/05 00:18:47;;;;;;;;;;;24.50;99.90;;;;;;5054336;28;19909;-69
2022/12/05 00:21:15;;;;;;;;;;;24.60;99.90;;;;;;5053558;28;19915;-69
2022/12/05 00:23:42;;;;;;;;;;;24.80;99.90;;;;;;5054227;28;20374;-70
2022/12/05 00:26:09;;;;;;;;;;;24.80;99.90;;;;;;5053426;28;19928;-70
2022/12/05 00:28:36;;;;;;;;;;;25.00;99.90;;;;;;5054359;28;19916;-69
2022/12/05 00:31:04;;;;;;;;;;;25.00;99.90;;;;;;5053008;28;19928;-69
2022/12/05 00:33:31;;;;;;;;;;;25.00;99.90;;;;;;5054226;28;20368;-66
2022/12/05 00:36:02;;;;;;;;;;;25.10;99.90;;;;;;5052968;28;19913;-66
2022/12/05 00:38:29;;;;;;;;;;;25.20;99.90;;;;;;5052909;28;20382;-68
2022/12/05 00:40:55;;;;;;;;;;;25.30;99.90;;;;;;5053963;28;19913;-68
2022/12/05 00:43:22;;;;;;;;;;;25.50;99.90;;;;;;5053183;28;20364;-68
2022/12/05 00:45:49;;;;;;;;;;;25.60;99.90;;;;;;5053456;28;20375;-71
2022/12/05 00:48:15;;;;;;;;;;;25.80;99.90;;;;;;5053167;28;19913;-69
2022/12/05 00:50:42;;;;;;;;;;;26.40;99.90;;;;;;5052737;28;20023;-71
2022/12/05 00:53:08;;;;;;;;;;;26.90;99.90;;;;;;5053644;28;19909;-71
2022/12/05 00:55:38;;;;;;;;;;;27.50;99.90;;;;;;5052909;28;19916;-71
2022/12/05 00:58:05;;;;;;;;;;;27.90;99.90;;;;;;5053476;28;19943;-68
2022/12/05 01:00:31;;;;;;;;;;;28.20;99.90;;;;;;5052813;28;20009;-72
2022/12/05 01:02:58;;;;;;;;;;;28.50;99.90;;;;;;5054700;28;19909;-69
2022/12/05 01:05:25;;;;;;;;;;;28.90;99.90;;;;;;5055041;28;19924;-71
2022/12/05 01:07:51;;;;;;;;;;;29.20;99.90;;;;;;5054640;28;19943;-69
2022/12/05 01:10:18;;;;;;;;;;;29.30;99.90;;;;;;5056534;28;19920;-69
2022/12/05 01:12:44;;;;;;;;;;;29.60;99.90;;;;;;5056219;28;19913;-66
2022/12/05 01:15:11;;;;;;;;;;;29.60;99.90;;;;;;5053477;28;20003;-69
2022/12/05 01:17:38;;;;;;;;;;;29.60;99.90;;;;;;5052551;28;20371;-68
2022/12/05 01:20:05;;;;;;;;;;;29.70;99.90;;;;;;5052498;28;19920;-67
2022/12/05 01:22:32;;;;;;;;;;;29.90;99.90;;;;;;5053548;28;20003;-68
2022/12/05 01:24:58;;;;;;;;;;;30.10;99.90;;;;;;5052252;28;20382;-67
2022/12/05 01:27:25;;;;;;;;;;;30.00;99.90;;;;;;5053417;28;19908;-68
2022/12/05 01:29:52;;;;;;;;;;;29.70;99.90;;;;;;5052166;28;19925;-68
2022/12/05 01:32:19;;;;;;;;;;;29.70;99.90;;;;;;5051936;28;19917;-68
2022/12/05 01:34:45;;;;;;;;;;;29.60;99.90;;;;;;5053111;28;19916;-68
2022/12/05 01:37:12;;;;;;;;;;;29.80;99.90;;;;;;5052180;28;19952;-72
2022/12/05 01:39:39;;;;;;;;;;;29.90;99.90;;;;;;5053073;28;19909;-68
2022/12/05 01:42:05;;;;;;;;;;;29.60;99.90;;;;;;5050817;28;20306;-68
2022/12/05 01:44:32;;;;;;;;;;;29.10;99.90;;;;;;5053135;28;19909;-69
2022/12/05 01:46:59;;;;;;;;;;;28.60;99.90;;;;;;5051789;28;19913;-71
2022/12/05 01:49:44;;;;;;;;;;;28.10;99.90;;;;;;5052151;28;20275;-71
2022/12/05 01:52:14;;;;;;;;;;;27.80;99.90;;;;;;5053083;28;19917;-70
2022/12/05 01:54:41;;;;;;;;;;;27.50;99.90;;;;;;5052082;28;19939;-70
2022/12/05 01:57:10;;;;;;;;;;;27.60;99.90;;;;;;5051701;28;20299;-70
2022/12/05 01:59:38;;;;;;;;;;;27.40;99.90;;;;;;5056357;28;19966;-69
2022/12/05 02:02:06;;;;;;;;;;;27.30;99.90;;;;;;5056090;28;19913;-68
2022/12/05 02:04:38;;;;;;;;;;;27.20;99.90;;;;;;5056836;28;20387;-67
2022/12/05 02:07:04;;;;;;;;;;;27.10;99.90;;;;;;5055215;28;19913;-68
2022/12/05 02:09:31;;;;;;;;;;;26.90;99.90;;;;;;5054583;28;19925;-67
2022/12/05 02:12:00;;;;;;;;;;;27.00;99.90;;;;;;5048741;28;19921;-67
2022/12/05 02:14:33;;;;;;;;;;;27.00;99.90;;;;;;5050787;28;19913;-67
2022/12/05 02:17:11;;;;;;;;;;;27.10;99.90;;;;;;5056507;28;19909;-71
2022/12/05 02:19:47;;;;;;;;;;;26.90;99.90;;;;;;5056082;28;19912;-70
2022/12/05 02:22:32;;;;;;;;;;;26.90;99.90;;;;;;5056647;28;19999;-71
2022/12/05 02:25:09;;;;;;;;;;;26.80;99.90;;;;;;5054870;28;19913;-69
2022/12/05 02:27:48;;;;;;;;;;;26.80;99.90;;;;;;5056042;28;19909;-70
2022/12/05 02:30:16;;;;;;;;;;;26.80;99.90;;;;;;5055661;28;20327;-71
2022/12/05 02:32:46;;;;;;;;;;;26.60;99.90;;;;;;5056548;28;19916;-71
2022/12/05 02:35:30;;;;;;;;;;;26.60;99.90;;;;;;5055774;28;19915;-68
2022/12/05 02:37:57;;;;;;;;;;;26.60;99.90;;;;;;5054441;28;19913;-69
2022/12/05 02:40:26;;;;;;;;;;;26.60;99.90;;;;;;5056350;28;19962;-69
2022/12/05 02:42:58;;;;;;;;;;;26.60;99.90;;;;;;5055295;28;20362;-70
2022/12/05 02:45:25;;;;;;;;;;;26.60;99.90;;;;;;5056252;28;20248;-70
2022/12/05 02:47:53;;;;;;;;;;;26.80;99.90;;;;;;5055469;28;20361;-70
2022/12/05 02:50:22;;;;;;;;;;;26.70;99.90;;;;;;5056091;28;19920;-71
2022/12/05 02:52:50;;;;;;;;;;;26.50;99.90;;;;;;5053701;28;19977;-69
2022/12/05 02:55:18;;;;;;;;;;;26.50;99.90;;;;;;5056167;28;19952;-69
2022/12/05 02:57:47;;;;;;;;;;;26.40;99.90;;;;;;5054851;28;20023;-70
2022/12/05 03:00:14;;;;;;;;;;;26.50;99.90;;;;;;5055854;28;19908;-69
2022/12/05 03:02:41;;;;;;;;;;;26.50;99.90;;;;;;5055086;28;19917;-70
2022/12/05 03:05:11;;;;;;;;;;;26.50;99.90;;;;;;5055777;28;19915;-70
2022/12/05 03:07:38;;;;;;;;;;;26.60;99.90;;;;;;5053571;28;19912;-70
2022/12/05 03:10:06;;;;;;;;;;;26.60;99.90;;;;;;5055415;28;19921;-70
2022/12/05 03:12:35;;;;;;;;;;;26.60;99.90;;;;;;5055075;28;19913;-71
2022/12/05 03:15:17;;;;;;;;;;;26.80;99.90;;;;;;5055783;28;20264;-70
2022/12/05 03:17:55;;;;;;;;;;;26.80;99.90;;;;;;5054546;28;20371;-69
2022/12/05 03:20:28;;;;;;;;;;;26.70;99.90;;;;;;5055343;28;19995;-70
2022/12/05 03:22:58;;;;;;;;;;;26.60;99.90;;;;;;5054188;28;19970;-70
2022/12/05 03:25:29;;;;;;;;;;;26.70;99.90;;;;;;5055515;28;19916;-70
2022/12/05 03:28:04;;;;;;;;;;;26.60;99.90;;;;;;5054561;28;20030;-70
2022/12/05 03:30:32;;;;;;;;;;;26.50;99.90;;;;;;5054404;28;19917;-69
2022/12/05 03:32:58;;;;;;;;;;;26.60;99.90;;;;;;5053607;28;20342;-70
2022/12/05 03:35:43;;;;;;;;;;;26.60;99.90;;;;;;5055335;28;20003;-71
2022/12/05 03:38:10;;;;;;;;;;;26.60;99.90;;;;;;5054110;28;20003;-70
2022/12/05 03:40:42;;;;;;;;;;;26.50;99.90;;;;;;5055208;28;19976;-70
2022/12/05 03:43:18;;;;;;;;;;;26.50;99.90;;;;;;5054331;28;20389;-70
2022/12/05 03:45:52;;;;;;;;;;;26.50;99.90;;;;;;5054022;28;19919;-70
2022/12/05 03:48:25;;;;;;;;;;;26.50;99.90;;;;;;5055032;28;19915;-71
2022/12/05 03:50:52;;;;;;;;;;;26.50;99.90;;;;;;5053951;28;19924;-70
2022/12/05 03:53:24;;;;;;;;;;;26.50;99.90;;;;;;5054738;28;19916;-70
2022/12/05 03:56:11;;;;;;;;;;;26.40;99.90;;;;;;5053847;28;19920;-70
2022/12/05 03:58:43;;;;;;;;;;;26.30;99.90;;;;;;5052466;28;20011;-70
2022/12/05 04:01:11;;;;;;;;;;;26.50;99.90;;;;;;5054749;28;19909;-67
2022/12/05 04:03:50;;;;;;;;;;;26.40;99.90;;;;;;5053960;28;19916;-68
2022/12/05 04:06:37;;;;;;;;;;;26.40;99.90;;;;;;5054807;28;19931;-69
2022/12/05 04:09:07;;;;;;;;;;;26.40;99.90;;;;;;5053428;28;19952;-69
2022/12/05 04:11:35;;;;;;;;;;;26.20;99.90;;;;;;5054302;28;19940;-70
2022/12/05 04:14:08;;;;;;;;;;;26.20;99.90;;;;;;5052678;28;19913;-69
2022/12/05 04:19:25;;;;;;;;;;;26.00;99.90;;;;;;5054015;28;19919;-70
2022/12/05 04:21:53;;;;;;;;;;;25.90;99.90;;;;;;5053426;28;19912;-70
2022/12/05 04:27:22;;;;;;;;;;;25.90;99.90;;;;;;5053326;28;19919;-69
2022/12/05 04:30:08;;;;;;;;;;;26.00;99.90;;;;;;5053656;28;19917;-68
2022/12/05 04:32:53;;;;;;;;;;;26.10;99.90;;;;;;5054232;28;19935;-68
2022/12/05 04:35:29;;;;;;;;;;;26.10;99.90;;;;;;5053286;28;19920;-70
2022/12/05 04:37:59;;;;;;;;;;;25.90;99.90;;;;;;5052919;28;19959;-68
2022/12/05 04:40:34;;;;;;;;;;;25.70;99.90;;;;;;5040996;28;19920;-69
2022/12/05 04:43:02;;;;;;;;;;;25.70;99.90;;;;;;5033737;28;19996;-70
2022/12/05 04:45:29;;;;;;;;;;;25.80;99.90;;;;;;5035912;28;19909;-70
2022/12/05 04:47:59;;;;;;;;;;;25.70;99.90;;;;;;5052927;28;19913;-68
2022/12/05 04:50:28;;;;;;;;;;;25.80;99.90;;;;;;5052754;28;19927;-68
2022/12/05 04:52:56;;;;;;;;;;;25.80;99.90;;;;;;5053416;28;19916;-69
2022/12/05 04:55:28;;;;;;;;;;;25.80;99.90;;;;;;5052885;28;19968;-69
2022/12/05 04:58:06;;;;;;;;;;;25.70;99.90;;;;;;5053173;28;19921;-69
2022/12/05 05:00:37;;;;;;;;;;;25.50;99.90;;;;;;5052773;28;19913;-69
2022/12/05 05:03:06;;;;;;;;;;;25.40;99.90;;;;;;5053345;28;19959;-69
2022/12/05 05:05:34;;;;;;;;;;;25.30;99.90;;;;;;5052823;28;20252;-69
2022/12/05 05:08:01;;;;;;;;;;;25.30;99.90;;;;;;5049857;28;19924;-66
2022/12/05 05:10:50;;;;;;;;;;;25.20;99.90;;;;;;5052774;28;19931;-70
2022/12/05 05:13:17;;;;;;;;;;;25.00;99.90;;;;;;5023880;28;20271;-69
2022/12/05 05:15:47;;;;;;;;;;;24.80;99.90;;;;;;5053246;28;19909;-68
2022/12/05 05:18:14;;;;;;;;;;;24.60;99.90;;;;;;5052651;28;20376;-71
2022/12/05 05:20:40;;;;;;;;;;;24.60;99.90;;;;;;5052497;28;20011;-71
2022/12/05 05:23:07;;;;;;;;;;;24.50;99.90;;;;;;5051321;28;19920;-70
2022/12/05 05:25:34;;;;;;;;;;;24.40;99.90;;;;;;5052644;28;19909;-69
2022/12/05 05:28:01;;;;;;;;;;;24.30;99.90;;;;;;5052681;28;20457;-70
2022/12/05 05:30:27;;;;;;;;;;;24.20;99.90;;;;;;5053028;28;19919;-69
2022/12/05 05:32:55;;;;;;;;;;;23.90;99.90;;;;;;5052139;28;19913;-69
2022/12/05 05:35:22;;;;;;;;;;;23.60;99.90;;;;;;5053229;28;20000;-70
2022/12/05 05:37:49;;;;;;;;;;;23.50;99.90;;;;;;5052036;28;19913;-69
2022/12/05 05:40:16;;;;;;;;;;;23.20;99.90;;;;;;5051685;28;19982;-69
2022/12/05 05:42:44;;;;;;;;;;;22.80;99.90;;;;;;5052917;28;19936;-70
2022/12/05 05:45:14;;;;;;;;;;;22.50;99.90;;;;;;5052117;28;20283;-71
2022/12/05 05:47:41;;;;;;;;;;;22.10;99.90;;;;;;5051686;28;19974;-70
2022/12/05 05:50:09;;;;;;;;;;;21.80;99.90;;;;;;5052669;28;19917;-71
2022/12/05 05:52:36;;;;;;;;;;;21.60;99.90;;;;;;5049111;28;19913;-71
2022/12/05 05:55:04;;;;;;;;;;;21.40;99.90;;;;;;5049935;28;19916;-70
2022/12/05 05:57:31;;;;;;;;;;;21.30;99.90;;;;;;5049594;28;19982;-71
2022/12/05 05:59:58;;;;;;;;;;;21.40;99.90;;;;;;5050568;28;19913;-70
2022/12/05 06:02:24;;;;;;;;;;;21.60;99.90;;;;;;5049093;28;19955;-70
2022/12/05 06:04:51;;;;;;;;;;;21.60;99.90;;;;;;5050141;28;19913;-70
2022/12/05 06:07:18;;;;;;;;;;;21.60;99.90;;;;;;5049287;28;19913;-70
2022/12/05 06:09:44;;;;;;;;;;;21.70;99.90;;;;;;5050059;28;20035;-69
2022/12/05 06:12:11;;;;;;;;;;;21.80;99.90;;;;;;5049612;28;19921;-69
2022/12/05 06:14:38;;;;;;;;;;;21.80;99.90;;;;;;5050629;28;20406;-70
2022/12/05 06:17:04;;;;;;;;;;;21.90;99.90;;;;;;5048972;28;19916;-69
2022/12/05 06:19:31;;;;;;;;;;;21.80;99.90;;;;;;5050601;28;20437;-71
2022/12/05 06:21:58;;;;;;;;;;;21.80;99.90;;;;;;5049841;28;19923;-69
2022/12/05 06:24:25;;;;;;;;;;;21.90;99.90;;;;;;5050226;28;19920;-68
2022/12/05 06:26:51;;;;;;;;;;;21.80;99.90;;;;;;5044085;28;19916;-69
2022/12/05 06:29:18;;;;;;;;;;;21.80;99.90;;;;;;5050227;28;19908;-69
2022/12/05 06:31:45;;;;;;;;;;;21.80;99.90;;;;;;5049192;28;19939;-69
2022/12/05 06:34:11;;;;;;;;;;;21.90;99.90;;;;;;5050667;28;20000;-70
2022/12/05 06:36:38;;;;;;;;;;;21.90;99.90;;;;;;5048593;28;19913;-66
2022/12/05 06:39:05;;;;;;;;;;;22.10;99.90;;;;;;5050072;28;20000;-69
2022/12/05 06:41:32;;;;;;;;;;;22.20;99.90;;;;;;5049746;28;19921;-67
2022/12/05 06:43:59;;;;;;;;;;;22.30;99.90;;;;;;5049762;28;19916;-66
2022/12/05 06:46:26;;;;;;;;;;;22.30;99.90;;;;;;5054130;28;19920;-69
2022/12/05 06:48:53;;;;;;;;;;;22.30;99.90;;;;;;5053200;28;20315;-69
2022/12/05 06:51:23;;;;;;;;;;;22.30;99.90;;;;;;5053740;28;20011;-69
2022/12/05 06:53:50;;;;;;;;;;;22.20;99.90;;;;;;5053189;28;19984;-67
2022/12/05 06:56:18;;;;;;;;;;;22.20;99.90;;;;;;5052220;28;19981;-69
2022/12/05 06:58:47;;;;;;;;;;;22.30;99.90;;;;;;5053640;28;19913;-69
2022/12/05 07:03:59;;;;;;;;;;;22.30;99.90;;;;;;5054190;28;19939;-69
2022/12/05 07:06:29;;;;;;;;;;;22.20;99.90;;;;;;5051802;28;21481;-69
2022/12/05 07:08:56;;;;;;;;;;;22.20;99.90;;;;;;5052973;28;19935;-69
2022/12/05 07:11:22;;;;;;;;;;;22.20;99.90;;;;;;5052205;28;19924;-67
2022/12/05 07:13:49;;;;;;;;;;;22.10;99.90;;;;;;5033756;28;19913;-67
2022/12/05 07:16:16;;;;;;;;;;;22.20;99.90;;;;;;5033677;28;19909;-69
2022/12/05 07:18:42;;;;;;;;;;;22.10;99.90;;;;;;5052106;28;19959;-68
2022/12/05 07:21:11;;;;;;;;;;;22.20;99.90;;;;;;5053099;28;20425;-69
2022/12/05 07:23:38;;;;;;;;;;;22.30;99.90;;;;;;5051983;28;19921;-65
2022/12/05 07:26:05;;;;;;;;;;;22.40;99.90;;;;;;5052698;28;19909;-68
2022/12/05 07:28:32;;;;;;;;;;;22.40;99.90;;;;;;5052764;28;19913;-68
2022/12/05 07:31:03;;;;;;;;;;;22.50;99.90;;;;;;5052219;28;20360;-68
2022/12/05 07:33:30;;;;;;;;;;;22.60;99.90;;;;;;5052496;28;19920;-67
2022/12/05 07:36:04;;;;;;;;;;;22.70;99.90;;;;;;5051646;28;19917;-68
2022/12/05 07:38:31;;;;;;;;;;;22.80;99.90;;;;;;5050961;28;20372;-67
2022/12/05 07:40:57;;;;;;;;;;;22.80;99.90;;;;;;5052829;28;19931;-65
2022/12/05 07:43:24;;;;;;;;;;;22.90;99.90;;;;;;5052076;28;19912;-69
2022/12/05 07:45:51;;;;;;;;;;;23.00;99.90;;;;;;5052871;28;19917;-67
2022/12/05 07:48:18;;;;;;;;;;;23.00;99.90;;;;;;5052016;28;19912;-65
2022/12/05 07:50:46;;;;;;;;;;;23.00;99.90;;;;;;5052522;28;19927;-69
2022/12/05 07:53:13;;;;;;;;;;;23.00;99.90;;;;;;5051957;28;19917;-67
2022/12/05 07:55:39;;;;;;;;;;;23.00;99.90;;;;;;5051105;28;19949;-66
2022/12/05 07:58:06;;;;;;;;;;;23.00;99.90;;;;;;5052622;28;20295;-67
2022/12/05 08:00:33;;;;;;;;;;;23.00;99.90;;;;;;5045548;28;19924;-69
2022/12/05 08:03:01;;;;;;;;;;;23.00;99.90;;;;;;5032115;28;19992;-68
2022/12/05 08:05:28;;;;;;;;;;;23.00;99.90;;;;;;5037860;28;19913;-65
2022/12/05 08:07:55;;;;;;;;;;;22.90;99.90;;;;;;5051621;28;19913;-67
2022/12/05 08:10:21;;;;;;;;;;;22.90;99.90;;;;;;5042761;28;20398;-67
2022/12/05 08:12:48;;;;;;;;;;;22.80;99.90;;;;;;5042391;28;19919;-68
2022/12/05 08:15:15;;;;;;;;;;;22.80;99.90;;;;;;5054557;28;20275;-68
2022/12/05 08:17:42;;;;;;;;;;;23.10;99.90;;;;;;5053636;28;19917;-67
2022/12/05 08:20:09;;;;;;;;;;;23.30;99.90;;;;;;5054506;28;19962;-68
2022/12/05 08:22:35;;;;;;;;;;;23.40;99.90;;;;;;5053445;28;20260;-68
2022/12/05 08:25:02;;;;;;;;;;;23.40;99.90;;;;;;5054170;28;20317;-69
2022/12/05 08:27:29;;;;;;;;;;;23.40;99.90;;;;;;5053112;28;20271;-69
2022/12/05 08:29:56;;;;;;;;;;;23.20;99.90;;;;;;5054134;28;20413;-70
2022/12/05 08:32:22;;;;;;;;;;;23.20;99.90;;;;;;5053130;28;19923;-68
2022/12/05 08:34:50;;;;;;;;;;;23.20;99.90;;;;;;5053934;28;19995;-69
2022/12/05 08:37:16;;;;;;;;;;;23.20;99.90;;;;;;5051952;28;20299;-69
2022/12/05 08:39:43;;;;;;;;;;;23.20;99.90;;;;;;5053230;28;20264;-68
2022/12/05 08:42:10;;;;;;;;;;;23.10;99.90;;;;;;5053031;28;20473;-68
2022/12/05 08:44:36;;;;;;;;;;;23.10;99.90;;;;;;5054021;28;19959;-69
2022/12/05 08:47:03;;;;;;;;;;;23.10;99.90;;;;;;5052203;28;19913;-66
2022/12/05 08:49:30;;;;;;;;;;;23.00;99.90;;;;;;5053454;28;19948;-68
2022/12/05 08:51:56;;;;;;;;;;;23.00;99.90;;;;;;5053600;28;19913;-69
2022/12/05 08:54:23;;;;;;;;;;;22.90;99.90;;;;;;5051299;28;20397;-68
2022/12/05 08:56:50;;;;;;;;;;;22.90;99.90;;;;;;5052285;28;20016;-69
2022/12/05 08:59:17;;;;;;;;;;;22.90;99.90;;;;;;5053692;28;19913;-69
2022/12/05 09:01:44;;;;;;;;;;;22.80;99.90;;;;;;5052659;28;19953;-68
2022/12/05 09:04:11;;;;;;;;;;;22.80;99.90;;;;;;5053557;28;19986;-70
2022/12/05 09:06:39;;;;;;;;;;;22.80;99.90;;;;;;5052333;28;19909;-69
2022/12/05 09:09:07;;;;;;;;;;;22.70;99.90;;;;;;5052654;28;19959;-69
2022/12/05 09:11:36;;;;;;;;;;;22.80;99.90;;;;;;5047083;28;20367;-66
2022/12/05 09:14:04;;;;;;;;;;;22.70;99.90;;;;;;5046389;28;19917;-65
2022/12/05 09:16:32;;;;;;;;;;;22.70;99.90;;;;;;5043891;28;19912;-70
2022/12/05 09:18:59;;;;;;;;;;;22.70;99.90;;;;;;5043172;28;19923;-67
2022/12/05 09:21:27;;;;;;;;;;;22.80;99.90;;;;;;5044873;28;19913;-68
2022/12/05 09:23:53;;;;;;;;;;;22.80;99.90;;;;;;5043403;28;20058;-69
2022/12/05 09:26:22;;;;;;;;;;;22.80;99.90;;;;;;5042424;28;19939;-69
2022/12/05 09:28:49;;;;;;;;;;;22.80;99.90;;;;;;5044665;28;19958;-68
2022/12/05 09:31:21;;;;;;;;;;;22.70;99.90;;;;;;5043532;28;19928;-70
2022/12/05 09:33:49;;;;;;;;;;;22.50;99.90;;;;;;5044512;28;19923;-68
2022/12/05 09:36:17;;;;;;;;;;;22.40;99.90;;;;;;5043590;28;19920;-66
2022/12/05 09:38:44;;;;;;;;;;;22.30;99.90;;;;;;5044077;28;20352;-68
2022/12/05 09:41:17;;;;;;;;;;;22.30;99.90;;;;;;5043748;28;19924;-67
2022/12/05 09:43:46;;;;;;;;;;;22.30;99.90;;;;;;5044277;28;19917;-67
2022/12/05 09:46:23;;;;;;;;;;;22.30;99.90;;;;;;5043466;28;20436;-64
2022/12/05 09:48:51;;;;;;;;;;;22.40;99.90;;;;;;5043797;28;20646;-67
2022/12/05 09:51:17;;;;;;;;;;;22.40;99.90;;;;;;5045019;28;19947;-65
2022/12/05 09:53:44;;;;;;;;;;;22.50;99.90;;;;;;5043061;28;19912;-68
2022/12/05 09:56:16;;;;;;;;;;;22.40;99.90;;;;;;5044860;28;19924;-68
2022/12/05 09:58:50;;;;;;;;;;;22.40;99.90;;;;;;5043982;28;20195;-67
2022/12/05 10:01:37;;;;;;;;;;;22.40;99.90;;;;;;5044169;28;19913;-65
2022/12/05 10:04:07;;;;;;;;;;;21.90;99.90;;;;;;5043717;28;20015;-68
2022/12/05 10:06:52;;;;;;;;;;;21.50;99.90;;;;;;5042751;28;19923;-65
2022/12/05 10:09:18;;;;;;;;;;;21.30;99.90;;;;;;5044576;28;19960;-67
2022/12/05 10:11:45;;;;;;;;;;;21.20;99.90;;;;;;5043427;28;19931;-64
2022/12/05 10:14:17;;;;;;;;;;;21.20;99.90;;;;;;5044217;28;19976;-67
2022/12/05 10:16:55;;;;;;;;;;;21.30;99.90;;;;;;5043283;28;19916;-69
2022/12/05 10:19:30;;;;;;;;;;;21.20;99.90;;;;;;5045268;28;20367;-66
2022/12/05 10:21:57;;;;;;;;;;;21.20;99.90;;;;;;5062044;28;19925;-63
2022/12/05 10:24:38;;;;;;;;;;;21.20;99.90;;;;;;5048082;28;20486;-65
2022/12/05 10:27:09;;;;;;;;;;;21.20;99.90;;;;;;5047001;28;19917;-64
2022/12/05 10:29:42;;;;;;;;;;;21.30;99.90;;;;;;5048084;28;19952;-64
2022/12/05 10:32:08;;;;;;;;;;;21.20;99.90;;;;;;5046685;28;19921;-65
2022/12/05 10:34:40;;;;;;;;;;;21.30;99.90;;;;;;5047351;28;19917;-63
2022/12/05 10:37:17;;;;;;;;;;;21.20;99.90;;;;;;5047750;28;19913;-65
2022/12/05 10:39:45;;;;;;;;;;;21.00;99.90;;;;;;5047104;28;20354;-64
2022/12/05 10:42:14;;;;;;;;;;;20.90;99.90;;;;;;5047807;28;19944;-64
2022/12/05 10:44:41;;;;;;;;;;;20.80;99.90;;;;;;5046441;28;19924;-64
2022/12/05 10:47:08;;;;;;;;;;;20.80;99.90;;;;;;5046270;28;19944;-64
2022/12/05 10:49:36;;;;;;;;;;;20.80;99.90;;;;;;5047078;28;20347;-65
2022/12/05 10:52:03;;;;;;;;;;;20.70;99.90;;;;;;5046714;28;19921;-64
2022/12/05 10:54:32;;;;;;;;;;;20.70;99.90;;;;;;5047562;28;19951;-63
2022/12/05 10:56:58;;;;;;;;;;;20.70;99.90;;;;;;5045641;28;19925;-65
2022/12/05 10:59:26;;;;;;;;;;;20.60;99.90;;;;;;5046551;28;19960;-64
2022/12/05 11:01:54;;;;;;;;;;;20.60;99.90;;;;;;5046450;28;20260;-64
2022/12/05 11:04:25;;;;;;;;;;;20.60;99.90;;;;;;5047191;28;19920;-62
2022/12/05 11:06:59;;;;;;;;;;;20.60;99.90;;;;;;5047006;28;19921;-63
2022/12/05 11:09:32;;;;;;;;;;;20.50;99.90;;;;;;5046395;28;19916;-63
2022/12/05 11:12:01;;;;;;;;;;;20.50;99.90;;;;;;5046080;28;19982;-63
2022/12/05 11:14:28;;;;;;;;;;;20.40;99.90;;;;;;5047272;28;19919;-63
2022/12/05 11:16:59;;;;;;;;;;;20.40;99.90;;;;;;5045086;28;19917;-66
2022/12/05 11:19:26;;;;;;;;;;;20.30;99.90;;;;;;5046504;28;19920;-63
2022/12/05 11:21:53;;;;;;;;;;;20.20;99.90;;;;;;5046011;28;19921;-64
2022/12/05 11:24:30;;;;;;;;;;;20.10;99.90;;;;;;5046486;28;19963;-64
2022/12/05 11:27:19;;;;;;;;;;;20.10;99.90;;;;;;5043278;28;20007;-64
2022/12/05 11:30:17;;;;;;;;;;;20.00;99.90;;;;;;5045389;28;19958;-63
2022/12/05 11:32:44;;;;;;;;;;;20.00;99.90;;;;;;5045492;28;19948;-64
2022/12/05 11:35:11;;;;;;;;;;;19.90;99.90;;;;;;5046017;28;19912;-64
2022/12/05 11:37:40;;;;;;;;;;;19.70;99.90;;;;;;5044935;28;20437;-65
2022/12/05 11:40:25;;;;;;;;;;;19.70;99.90;;;;;;5046189;28;19946;-64
2022/12/05 11:43:03;;;;;;;;;;;19.70;99.90;;;;;;5042496;28;19917;-63
2022/12/05 11:45:52;;;;;;;;;;;19.60;99.90;;;;;;5046291;28;20570;-64
2022/12/05 11:48:19;;;;;;;;;;;19.60;99.90;;;;;;5037313;28;19920;-64
2022/12/05 11:50:51;;;;;;;;;;;19.60;99.90;;;;;;5046025;28;19966;-68
2022/12/05 11:53:21;;;;;;;;;;;19.70;99.90;;;;;;5039373;28;20294;-66
2022/12/05 11:56:10;;;;;;;;;;;19.70;99.90;;;;;;5046389;28;19964;-64
2022/12/05 11:58:40;;;;;;;;;;;19.70;99.90;;;;;;5045582;28;20011;-64
2022/12/05 12:01:06;;;;;;;;;;;19.70;99.90;;;;;;5046791;28;19913;-68
2022/12/05 12:03:33;;;;;;;;;;;19.60;99.90;;;;;;5053908;28;19913;-66
2022/12/05 12:06:00;;;;;;;;;;;19.70;99.90;;;;;;5053942;28;19912;-64
2022/12/05 12:08:50;;;;;;;;;;;19.70;99.90;;;;;;5054390;28;19971;-70
2022/12/05 12:11:35;;;;;;;;;;;19.60;99.90;;;;;;5017105;28;19959;-68
2022/12/05 12:14:07;;;;;;;;;;;19.70;99.90;;;;;;5053535;28;20333;-64
2022/12/05 12:16:58;;;;;;;;;;;19.60;99.90;;;;;;5053703;28;19966;-68
2022/12/05 12:19:42;;;;;;;;;;;19.60;99.90;;;;;;5054560;28;19916;-66
2022/12/05 12:22:12;;;;;;;;;;;19.60;99.90;;;;;;5053568;28;19944;-68
2022/12/05 12:24:41;;;;;;;;;;;19.50;99.90;;;;;;5054577;28;19908;-64
2022/12/05 12:27:08;;;;;;;;;;;19.50;99.90;;;;;;5053246;28;20351;-66
2022/12/05 12:29:47;;;;;;;;;;;19.50;99.90;;;;;;5054443;28;19908;-71
2022/12/05 12:32:24;;;;;;;;;;;19.50;99.90;;;;;;5053658;28;19921;-71
2022/12/05 12:35:09;;;;;;;;;;;19.50;99.90;;;;;;5053951;28;19909;-71
2022/12/05 12:37:45;;;;;;;;;;;19.60;99.90;;;;;;5053352;28;19913;-70
2022/12/05 12:40:21;;;;;;;;;;;19.60;99.90;;;;;;5054218;28;19909;-69
2022/12/05 12:42:47;;;;;;;;;;;19.60;99.90;;;;;;5051540;28;19917;-71
2022/12/05 12:45:28;;;;;;;;;;;19.70;99.90;;;;;;5053360;28;19913;-72
2022/12/05 12:48:21;;;;;;;;;;;19.70;99.90;;;;;;5054162;28;19908;-66
2022/12/05 12:50:51;;;;;;;;;;;19.60;99.90;;;;;;5049152;28;19928;-68
2022/12/05 12:53:17;;;;;;;;;;;19.70;99.90;;;;;;5053795;28;19916;-69
2022/12/05 12:55:44;;;;;;;;;;;19.70;99.90;;;;;;5052856;28;19913;-71
2022/12/05 12:58:33;;;;;;;;;;;19.70;99.90;;;;;;5052813;28;20424;-69
2022/12/05 13:01:04;;;;;;;;;;;19.60;99.90;;;;;;5053768;28;19909;-67
2022/12/05 13:03:35;;;;;;;;;;;19.70;99.90;;;;;;5052736;28;19913;-64
2022/12/05 13:06:25;;;;;;;;;;;19.70;99.90;;;;;;5053604;28;19913;-67
2022/12/05 13:09:29;;;;;;;;;;;19.70;99.90;;;;;;5028052;28;19924;-70
2022/12/05 13:11:59;;;;;;;;;;;19.60;99.90;;;;;;4963524;28;19992;-66
2022/12/05 13:14:26;;;;;;;;;;;19.50;99.90;;;;;;4966218;28;19918;-71
2022/12/05 13:16:54;;;;;;;;;;;19.40;99.90;;;;;;4993481;28;19916;-67
2022/12/05 13:19:27;;;;;;;;;;;19.30;99.90;;;;;;5038101;28;19912;-71
2022/12/05 13:21:56;;;;;;;;;;;19.30;99.90;;;;;;5053475;28;19945;-71
2022/12/05 13:24:25;;;;;;;;;;;19.40;99.90;;;;;;5052567;28;19913;-71
2022/12/05 13:26:52;;;;;;;;;;;19.40;99.90;;;;;;5034532;28;20367;-68
2022/12/05 13:29:26;;;;;;;;;;;19.40;99.90;;;;;;5053299;28;19909;-71
2022/12/05 13:31:53;;;;;;;;;;;19.40;99.90;;;;;;5052380;28;19921;-70
2022/12/05 13:34:44;;;;;;;;;;;19.40;99.90;;;;;;5053295;28;19989;-69
2022/12/05 13:43:12;;;;;;;;;;;19.50;99.90;;;;;;5052331;28;19984;-71
2022/12/05 13:45:40;;;;;;;;;;;19.50;99.90;;;;;;5053206;28;19913;-65
2022/12/05 13:48:06;;;;;;;;;;;19.50;99.90;;;;;;5052496;28;19920;-71
2022/12/05 13:50:35;;;;;;;;;;;19.50;99.90;;;;;;5053087;28;20376;-68
2022/12/05 13:53:17;;;;;;;;;;;19.50;99.90;;;;;;5051256;28;19913;-68
2022/12/05 13:56:01;;;;;;;;;;;19.40;99.90;;;;;;5057026;28;19955;-64
2022/12/05 13:58:31;;;;;;;;;;;19.50;99.90;;;;;;5056299;28;19924;-69
2022/12/05 14:01:15;;;;;;;;;;;19.40;99.90;;;;;;5057133;28;19916;-69
2022/12/05 14:03:48;;;;;;;;;;;19.40;99.90;;;;;;5056336;28;19920;-69
2022/12/05 14:06:37;;;;;;;;;;;19.40;99.90;;;;;;5056183;28;19943;-67
2022/12/05 14:09:16;;;;;;;;;;;19.30;99.90;;;;;;5046561;28;20275;-69
2022/12/05 14:12:01;;;;;;;;;;;19.30;99.90;;;;;;5056977;28;20390;-68
2022/12/05 14:14:45;;;;;;;;;;;19.30;99.90;;;;;;5056333;28;20322;-70
2022/12/05 14:17:13;;;;;;;;;;;19.20;99.90;;;;;;5054996;28;20039;-70
2022/12/05 14:19:54;;;;;;;;;;;19.20;99.90;;;;;;5056886;28;19955;-70
2022/12/05 14:22:40;;;;;;;;;;;19.20;99.90;;;;;;5055917;28;19913;-70
2022/12/05 14:25:27;;;;;;;;;;;19.00;99.90;;;;;;5056392;28;19991;-69
2022/12/05 14:28:17;;;;;;;;;;;19.00;99.90;;;;;;5055130;28;19955;-69
2022/12/05 14:31:13;;;;;;;;;;;18.90;99.90;;;;;;5025680;28;19924;-69
2022/12/05 14:33:39;;;;;;;;;;;18.90;99.90;;;;;;5002063;28;19996;-68
2022/12/05 14:36:07;;;;;;;;;;;18.90;99.90;;;;;;5043449;28;19917;-69
2022/12/05 14:38:36;;;;;;;;;;;18.80;99.90;;;;;;5036528;28;19909;-69
2022/12/05 14:41:16;;;;;;;;;;;18.70;99.90;;;;;;5048017;28;19913;-68
2022/12/05 14:43:43;;;;;;;;;;;18.70;99.90;;;;;;5056509;28;19908;-69
2022/12/05 14:46:22;;;;;;;;;;;18.60;99.90;;;;;;5054365;28;19920;-70
2022/12/05 14:48:49;;;;;;;;;;;18.60;99.90;;;;;;5055206;28;20360;-70
2022/12/05 14:51:31;;;;;;;;;;;18.60;99.90;;;;;;5056192;28;19990;-69